WetterOnline ( https://www.wetteronline.de )

Wetter aktuell Esch

Aktuelles Wetter: Salzburg Flughafen (450m)

6-stündlich | Neueste Meldungen
Ortszeit Temperatur Wetter
Mo, 18.01. 19:00 1.7° C bedeckt
Mo, 18.01. 13:00 1.1° C leichter Schneefall
Mo, 18.01. 7:00 1.6° C leichter Schneefall
Mo, 18.01. 1:00 -3.0° C leichter Schneefall
So, 17.01. 19:00 -3.4° C leichter Schneefall
So, 17.01. 13:00 -4.1° C leichter Schneefall
So, 17.01. 7:00 -6.3° C bedeckt
So, 17.01. 1:00 -8.1° C leicht bewölkt
Ortszeit Temperatur Wetter
Di, 19.01. 0:20 1° C bewölkt
Di, 19.01. 0:00 1.2° C bewölkt
Mo, 18.01. 23:50 1° C bewölkt
Mo, 18.01. 23:20 1° C bewölkt
Mo, 18.01. 23:00 1.2° C bewölkt
Mo, 18.01. 22:50 1° C bewölkt
Mo, 18.01. 22:20 0° C bedeckt
Mo, 18.01. 22:00 -0.1° C bewölkt
Mo, 18.01. 21:20 1° C bewölkt
Mo, 18.01. 21:00 0.2° C bedeckt
Ortszeit Relative Feuchte Sichtweite
Mo, 18.01. 19:00 71% 70 km
Mo, 18.01. 13:00 85% 9 km
Mo, 18.01. 7:00 84% 29 km
Mo, 18.01. 1:00 98% 3.0 km
So, 17.01. 19:00 93% 10 km
So, 17.01. 13:00 88% 8 km
So, 17.01. 7:00 82% 40 km
So, 17.01. 1:00 92% 26 km
Ortszeit Relative Feuchte Sichtweite
Di, 19.01. 0:20 69% >10 km
Di, 19.01. 0:00 65% 70 km
Mo, 18.01. 23:50 64% >10 km
Mo, 18.01. 23:20 69% >10 km
Mo, 18.01. 23:00 67% 60 km
Mo, 18.01. 22:50 69% >10 km
Mo, 18.01. 22:20 86% >10 km
Mo, 18.01. 22:00 84% 55 km
Mo, 18.01. 21:20 75% >10 km
Mo, 18.01. 21:00 83% 55 km
Ortszeit Niederschlagsmenge Niederschlagsart
Mo, 18.01. 19:00 2 l/m2 in 12 Std. -
Mo, 18.01. 13:00 2 l/m2 in 6 Std. -
Mo, 18.01. 7:00 2 l/m2 in 12 Std. -
Mo, 18.01. 1:00 0.7 l/m2 in 6 Std. -
So, 17.01. 19:00 1 l/m2 in 12 Std. -
So, 17.01. 13:00 1 l/m2 in 6 Std. -
So, 17.01. 7:00 keine Meldung -
So, 17.01. 1:00 keine Meldung -
Ortszeit Niederschlagsmenge Niederschlagsart
Di, 19.01. 0:20 keine Meldung -
Di, 19.01. 0:00 0.0 l/m2 in 1 Std. -
Mo, 18.01. 23:50 keine Meldung -
Mo, 18.01. 23:20 keine Meldung -
Mo, 18.01. 23:00 0.0 l/m2 in 1 Std. -
Mo, 18.01. 22:50 keine Meldung -
Mo, 18.01. 22:20 keine Meldung -
Mo, 18.01. 22:00 0.0 l/m2 in 1 Std. -
Mo, 18.01. 21:20 keine Meldung -
Mo, 18.01. 21:00 0.0 l/m2 in 1 Std. -
Ortszeit Stärke Spitze Richtung
km/h Bft. km/h Grad Sektor
Mo, 18.01. 19:00 18 3 - 280° W
Mo, 18.01. 13:00 25 4 - 290° W
Mo, 18.01. 7:00 11 2 - 290° W
Mo, 18.01. 1:00 7 2 - - -
So, 17.01. 19:00 4 1 - - -
So, 17.01. 13:00 7 2 - - -
So, 17.01. 7:00 11 2 - - -
So, 17.01. 1:00 7 2 - - -
Ortszeit Stärke Spitze Richtung
km/h Bft. km/h Grad Sektor
Di, 19.01. 0:20 7 2 - 260° W
Di, 19.01. 0:00 14 3 - 260° W
Mo, 18.01. 23:50 13 3 - 260° W
Mo, 18.01. 23:20 9 2 - 240° SW
Mo, 18.01. 23:00 7 2 - - -
Mo, 18.01. 22:50 6 1 - 250° W
Mo, 18.01. 22:20 6 1 - 240° SW
Mo, 18.01. 22:00 7 2 - - -
Mo, 18.01. 21:20 11 2 - 230° SW
Mo, 18.01. 21:00 11 2 - - -
Ortszeit Untergrenze Bedeckung Gattung
total tief tief mittel hoch
Mo, 18.01. 19:00 540 m 8/8 6/8 Sc - -
Mo, 18.01. 13:00 180 m 8/8 5/8 St - -
Mo, 18.01. 7:00 300 m 8/8 5/8 St - -
Mo, 18.01. 1:00 360 m 8/8 7/8 - - -
So, 17.01. 19:00 300 m 8/8 6/8 St - -
So, 17.01. 13:00 270 m 8/8 6/8 St - -
So, 17.01. 7:00 900 m 8/8 6/8 Sc - -
So, 17.01. 1:00 1200 m 6/8 1/8 Sc - Ci
Ortszeit Bedeckungsgrad in Achtel und Wolkenuntergrenze
Di, 19.01. 0:20 1-2(1140m) 5-7(1800m)
Di, 19.01. 0:00 1(1380m) 6(1500m)
Mo, 18.01. 23:50 1-2(1380m) 5-7(1500m)
Mo, 18.01. 23:20 1-2(1500m) 5-7(1800m)
Mo, 18.01. 23:00 5(1500m)
Mo, 18.01. 22:50 5-7(1500m)
Mo, 18.01. 22:20 1-2(1440m) 8(1800m)
Mo, 18.01. 22:00 1(1500m) 6(1800m)
Mo, 18.01. 21:20 1-2(1500m) 5-7(1800m)
Mo, 18.01. 21:00 1(1350m) 6(1800m)
Ortszeit Luftdruck NN (hPa) Tendenz (hPa in 3 Std.)
Mo, 18.01. 19:00 1027 + 0,2
Mo, 18.01. 13:00 1026 + 0,7
Mo, 18.01. 7:00 1025 + 0,5
Mo, 18.01. 1:00 1025 + 0,3
So, 17.01. 19:00 1023 + 2,0
So, 17.01. 13:00 1020 + 0,2
So, 17.01. 7:00 1020 - 0,6
So, 17.01. 1:00 1023 - 1,7
Ortszeit Luftdruck NN (hPa) Tendenz (hPa in 3 Std.)
Di, 19.01. 0:20 1024 keine Meldung
Di, 19.01. 0:00 1027 - 0,1
Mo, 18.01. 23:50 1025 keine Meldung
Mo, 18.01. 23:20 1025 keine Meldung
Mo, 18.01. 23:00 1027 - 0,2
Mo, 18.01. 22:50 1024 keine Meldung
Mo, 18.01. 22:20 1025 keine Meldung
Mo, 18.01. 22:00 1027 + 0,1
Mo, 18.01. 21:20 1025 keine Meldung
Mo, 18.01. 21:00 1027 + 0,1
Ortszeit Schneehöhe (cm)
Mo, 18.01. 19:00 -
Mo, 18.01. 13:00 -
Mo, 18.01. 7:00 10
Mo, 18.01. 1:00 9
So, 17.01. 19:00 -
So, 17.01. 13:00 -
So, 17.01. 7:00 5
So, 17.01. 1:00 -
Ortszeit Schneehöhe (cm)
Di, 19.01. 0:20 -
Di, 19.01. 0:00 8
Mo, 18.01. 23:50 -
Mo, 18.01. 23:20 -
Mo, 18.01. 23:00 8
Mo, 18.01. 22:50 -
Mo, 18.01. 22:20 -
Mo, 18.01. 22:00 8
Mo, 18.01. 21:20 -
Mo, 18.01. 21:00 -
Link zu dieser Seite / Seite empfehlen

Das Wetter in ...